Terminal Aerodrome Forecast
Issued by NWS

Home | Current Version | Previous Version | Text Only | Print | Product List | Glossary On
Versions: 1 2 3 4 5 6 7 8 9 10 11 12 13
000
FTUS46 KHNX 221139
TAFMER
TAF
KMER 221139Z 2212/2312 12005KT P6SM SCT100 BKN200
     FM221400 14006KT P6SM VCSH OVC060
     FM222000 VRB04KT P6SM SCT100
     FM231000 VRB03KT 4SM BR SKC=

USA.gov is the U.S. government's official web portal to all federal, state and local government web resources and services.